sensor_id;sensor_type;location;lat;lon;timestamp;P1;durP1;ratioP1;P2;durP2;ratioP2
21663;SDS011;10993;52.510;13.456;2023-06-10T00:02:36;7.00;;;3.67;;
21663;SDS011;10993;52.510;13.456;2023-06-10T00:07:38;9.60;;;4.00;;
21663;SDS011;10993;52.510;13.456;2023-06-10T00:12:39;7.75;;;3.20;;
21663;SDS011;10993;52.510;13.456;2023-06-10T00:17:40;7.05;;;3.55;;
21663;SDS011;10993;52.510;13.456;2023-06-10T00:22:42;7.95;;;3.20;;
21663;SDS011;10993;52.510;13.456;2023-06-10T00:27:45;9.73;;;3.85;;
21663;SDS011;10993;52.510;13.456;2023-06-10T00:32:46;9.38;;;3.50;;
21663;SDS011;10993;52.510;13.456;2023-06-10T00:37:47;9.73;;;3.85;;
21663;SDS011;10993;52.510;13.456;2023-06-10T00:42:48;8.90;;;3.72;;
21663;SDS011;10993;52.510;13.456;2023-06-10T00:47:48;8.77;;;3.20;;
21663;SDS011;10993;52.510;13.456;2023-06-10T00:52:50;7.47;;;3.30;;
21663;SDS011;10993;52.510;13.456;2023-06-10T00:57:51;8.57;;;3.35;;
21663;SDS011;10993;52.510;13.456;2023-06-10T01:02:53;8.18;;;3.45;;
21663;SDS011;10993;52.510;13.456;2023-06-10T01:07:56;7.65;;;3.22;;
21663;SDS011;10993;52.510;13.456;2023-06-10T01:13:02;7.95;;;3.72;;
21663;SDS011;10993;52.510;13.456;2023-06-10T01:18:07;7.95;;;3.40;;
21663;SDS011;10993;52.510;13.456;2023-06-10T01:23:10;8.57;;;3.28;;
21663;SDS011;10993;52.510;13.456;2023-06-10T01:28:21;8.30;;;3.17;;
21663;SDS011;10993;52.510;13.456;2023-06-10T01:33:31;7.07;;;3.55;;
21663;SDS011;10993;52.510;13.456;2023-06-10T01:38:39;7.78;;;4.35;;
21663;SDS011;10993;52.510;13.456;2023-06-10T01:43:42;6.75;;;3.40;;
21663;SDS011;10993;52.510;13.456;2023-06-10T01:48:43;9.65;;;3.85;;
21663;SDS011;10993;52.510;13.456;2023-06-10T01:53:45;8.25;;;3.10;;
21663;SDS011;10993;52.510;13.456;2023-06-10T01:58:45;9.88;;;3.65;;
21663;SDS011;10993;52.510;13.456;2023-06-10T02:03:46;8.73;;;3.58;;
21663;SDS011;10993;52.510;13.456;2023-06-10T02:08:48;7.85;;;3.30;;
21663;SDS011;10993;52.510;13.456;2023-06-10T02:13:48;9.23;;;2.63;;
21663;SDS011;10993;52.510;13.456;2023-06-10T02:18:48;6.03;;;3.15;;
21663;SDS011;10993;52.510;13.456;2023-06-10T02:23:50;7.28;;;3.40;;
21663;SDS011;10993;52.510;13.456;2023-06-10T02:28:50;6.60;;;2.97;;
21663;SDS011;10993;52.510;13.456;2023-06-10T02:33:51;8.27;;;3.10;;
21663;SDS011;10993;52.510;13.456;2023-06-10T02:38:52;7.05;;;3.35;;
21663;SDS011;10993;52.510;13.456;2023-06-10T02:43:53;7.35;;;2.75;;
21663;SDS011;10993;52.510;13.456;2023-06-10T02:48:53;6.05;;;3.00;;
21663;SDS011;10993;52.510;13.456;2023-06-10T02:53:55;10.73;;;3.45;;
21663;SDS011;10993;52.510;13.456;2023-06-10T02:58:55;11.07;;;3.83;;
21663;SDS011;10993;52.510;13.456;2023-06-10T03:03:56;9.23;;;2.97;;
21663;SDS011;10993;52.510;13.456;2023-06-10T03:08:57;12.50;;;3.80;;
21663;SDS011;10993;52.510;13.456;2023-06-10T03:13:58;10.13;;;3.20;;
21663;SDS011;10993;52.510;13.456;2023-06-10T03:18:58;7.40;;;3.42;;
21663;SDS011;10993;52.510;13.456;2023-06-10T03:24:00;8.07;;;3.72;;
21663;SDS011;10993;52.510;13.456;2023-06-10T03:29:00;8.20;;;3.63;;
21663;SDS011;10993;52.510;13.456;2023-06-10T03:34:00;9.43;;;3.73;;
21663;SDS011;10993;52.510;13.456;2023-06-10T03:39:02;7.43;;;3.80;;
21663;SDS011;10993;52.510;13.456;2023-06-10T03:44:03;6.88;;;3.05;;
21663;SDS011;10993;52.510;13.456;2023-06-10T03:49:04;8.07;;;4.03;;
21663;SDS011;10993;52.510;13.456;2023-06-10T03:54:06;6.25;;;3.38;;
21663;SDS011;10993;52.510;13.456;2023-06-10T03:59:06;8.88;;;3.88;;
21663;SDS011;10993;52.510;13.456;2023-06-10T04:04:06;9.70;;;3.55;;
21663;SDS011;10993;52.510;13.456;2023-06-10T04:09:08;6.32;;;3.88;;
21663;SDS011;10993;52.510;13.456;2023-06-10T04:14:09;11.13;;;4.30;;
21663;SDS011;10993;52.510;13.456;2023-06-10T04:19:10;6.97;;;3.80;;
21663;SDS011;10993;52.510;13.456;2023-06-10T04:24:12;8.20;;;3.70;;
21663;SDS011;10993;52.510;13.456;2023-06-10T04:29:12;7.32;;;3.47;;
21663;SDS011;10993;52.510;13.456;2023-06-10T04:34:12;11.17;;;4.67;;
21663;SDS011;10993;52.510;13.456;2023-06-10T04:39:14;6.82;;;3.65;;
21663;SDS011;10993;52.510;13.456;2023-06-10T04:44:16;9.68;;;3.83;;
21663;SDS011;10993;52.510;13.456;2023-06-10T04:49:17;9.00;;;4.38;;
21663;SDS011;10993;52.510;13.456;2023-06-10T04:54:18;7.03;;;4.00;;
21663;SDS011;10993;52.510;13.456;2023-06-10T04:59:19;6.38;;;3.28;;
21663;SDS011;10993;52.510;13.456;2023-06-10T05:04:19;7.78;;;3.55;;
21663;SDS011;10993;52.510;13.456;2023-06-10T05:09:21;6.65;;;3.70;;
21663;SDS011;10993;52.510;13.456;2023-06-10T05:14:21;9.00;;;3.97;;
21663;SDS011;10993;52.510;13.456;2023-06-10T05:19:21;7.57;;;3.67;;
21663;SDS011;10993;52.510;13.456;2023-06-10T05:24:23;6.22;;;3.22;;
21663;SDS011;10993;52.510;13.456;2023-06-10T05:29:24;7.95;;;3.42;;
21663;SDS011;10993;52.510;13.456;2023-06-10T05:34:24;5.90;;;3.40;;
21663;SDS011;10993;52.510;13.456;2023-06-10T05:39:26;10.18;;;3.92;;
21663;SDS011;10993;52.510;13.456;2023-06-10T05:44:26;7.47;;;3.38;;
21663;SDS011;10993;52.510;13.456;2023-06-10T05:49:27;11.98;;;4.20;;
21663;SDS011;10993;52.510;13.456;2023-06-10T05:54:28;10.05;;;3.35;;
21663;SDS011;10993;52.510;13.456;2023-06-10T05:59:28;7.25;;;3.65;;
21663;SDS011;10993;52.510;13.456;2023-06-10T06:04:29;6.35;;;3.63;;
21663;SDS011;10993;52.510;13.456;2023-06-10T06:09:31;8.68;;;4.55;;
21663;SDS011;10993;52.510;13.456;2023-06-10T06:14:31;10.23;;;4.00;;
21663;SDS011;10993;52.510;13.456;2023-06-10T06:19:32;11.82;;;4.35;;
21663;SDS011;10993;52.510;13.456;2023-06-10T06:24:34;6.13;;;3.67;;
21663;SDS011;10993;52.510;13.456;2023-06-10T06:29:34;7.47;;;3.83;;
21663;SDS011;10993;52.510;13.456;2023-06-10T06:34:34;8.10;;;4.10;;
21663;SDS011;10993;52.510;13.456;2023-06-10T06:39:36;11.40;;;4.43;;
21663;SDS011;10993;52.510;13.456;2023-06-10T06:44:36;11.18;;;3.80;;
21663;SDS011;10993;52.510;13.456;2023-06-10T06:49:37;8.00;;;3.50;;
21663;SDS011;10993;52.510;13.456;2023-06-10T06:54:39;7.40;;;4.03;;
21663;SDS011;10993;52.510;13.456;2023-06-10T06:59:39;8.05;;;4.10;;
21663;SDS011;10993;52.510;13.456;2023-06-10T07:04:39;6.57;;;4.00;;
21663;SDS011;10993;52.510;13.456;2023-06-10T07:09:42;6.95;;;3.90;;
21663;SDS011;10993;52.510;13.456;2023-06-10T07:14:42;7.95;;;3.33;;
21663;SDS011;10993;52.510;13.456;2023-06-10T07:19:43;5.80;;;3.58;;
21663;SDS011;10993;52.510;13.456;2023-06-10T07:24:44;7.03;;;4.00;;
21663;SDS011;10993;52.510;13.456;2023-06-10T07:29:45;7.07;;;3.60;;
21663;SDS011;10993;52.510;13.456;2023-06-10T07:34:45;5.20;;;3.33;;
21663;SDS011;10993;52.510;13.456;2023-06-10T07:39:47;6.05;;;3.92;;
21663;SDS011;10993;52.510;13.456;2023-06-10T07:44:47;6.82;;;3.75;;
21663;SDS011;10993;52.510;13.456;2023-06-10T07:49:47;6.20;;;3.67;;
21663;SDS011;10993;52.510;13.456;2023-06-10T07:54:49;8.85;;;4.93;;
21663;SDS011;10993;52.510;13.456;2023-06-10T07:59:50;8.43;;;3.78;;
21663;SDS011;10993;52.510;13.456;2023-06-10T08:04:50;8.02;;;3.47;;
21663;SDS011;10993;52.510;13.456;2023-06-10T08:09:52;5.80;;;3.60;;
21663;SDS011;10993;52.510;13.456;2023-06-10T08:14:52;7.38;;;3.83;;
21663;SDS011;10993;52.510;13.456;2023-06-10T08:19:53;5.88;;;3.60;;
21663;SDS011;10993;52.510;13.456;2023-06-10T08:24:55;8.67;;;4.20;;
21663;SDS011;10993;52.510;13.456;2023-06-10T08:29:56;8.45;;;4.00;;
21663;SDS011;10993;52.510;13.456;2023-06-10T08:34:56;7.03;;;4.30;;
21663;SDS011;10993;52.510;13.456;2023-06-10T08:39:58;6.97;;;3.80;;
21663;SDS011;10993;52.510;13.456;2023-06-10T08:44:58;9.60;;;4.60;;
21663;SDS011;10993;52.510;13.456;2023-06-10T08:50:02;7.75;;;4.25;;
21663;SDS011;10993;52.510;13.456;2023-06-10T08:55:08;8.55;;;4.40;;
21663;SDS011;10993;52.510;13.456;2023-06-10T09:00:11;6.32;;;4.30;;
21663;SDS011;10993;52.510;13.456;2023-06-10T09:05:13;8.35;;;3.83;;
21663;SDS011;10993;52.510;13.456;2023-06-10T09:10:15;7.32;;;3.72;;
21663;SDS011;10993;52.510;13.456;2023-06-10T09:15:15;6.65;;;3.70;;
21663;SDS011;10993;52.510;13.456;2023-06-10T09:20:17;8.32;;;4.78;;
21663;SDS011;10993;52.510;13.456;2023-06-10T09:25:19;6.63;;;3.70;;
21663;SDS011;10993;52.510;13.456;2023-06-10T09:30:35;5.93;;;3.17;;
21663;SDS011;10993;52.510;13.456;2023-06-10T09:35:35;5.70;;;3.33;;
21663;SDS011;10993;52.510;13.456;2023-06-10T09:40:41;6.03;;;2.97;;
21663;SDS011;10993;52.510;13.456;2023-06-10T09:45:48;6.80;;;3.95;;
21663;SDS011;10993;52.510;13.456;2023-06-10T09:50:49;6.78;;;3.70;;
21663;SDS011;10993;52.510;13.456;2023-06-10T09:55:51;8.03;;;3.87;;
21663;SDS011;10993;52.510;13.456;2023-06-10T10:00:52;10.55;;;4.70;;
21663;SDS011;10993;52.510;13.456;2023-06-10T10:05:57;6.45;;;4.53;;
21663;SDS011;10993;52.510;13.456;2023-06-10T10:10:59;9.32;;;4.53;;
21663;SDS011;10993;52.510;13.456;2023-06-10T10:16:01;8.50;;;4.30;;
21663;SDS011;10993;52.510;13.456;2023-06-10T10:21:06;6.70;;;4.15;;
21663;SDS011;10993;52.510;13.456;2023-06-10T10:26:13;8.60;;;3.92;;
21663;SDS011;10993;52.510;13.456;2023-06-10T10:31:15;6.03;;;3.50;;
21663;SDS011;10993;52.510;13.456;2023-06-10T10:36:19;4.78;;;3.00;;
21663;SDS011;10993;52.510;13.456;2023-06-10T10:41:20;4.78;;;3.00;;
21663;SDS011;10993;52.510;13.456;2023-06-10T10:46:23;4.80;;;2.72;;
21663;SDS011;10993;52.510;13.456;2023-06-10T10:51:24;5.63;;;2.85;;
21663;SDS011;10993;52.510;13.456;2023-06-10T10:56:26;4.95;;;2.80;;
21663;SDS011;10993;52.510;13.456;2023-06-10T11:01:39;4.47;;;3.03;;
21663;SDS011;10993;52.510;13.456;2023-06-10T11:06:40;3.80;;;2.83;;
21663;SDS011;10993;52.510;13.456;2023-06-10T11:11:53;4.20;;;2.72;;
21663;SDS011;10993;52.510;13.456;2023-06-10T11:16:57;3.92;;;2.42;;
21663;SDS011;10993;52.510;13.456;2023-06-10T11:21:58;3.90;;;2.70;;
21663;SDS011;10993;52.510;13.456;2023-06-10T11:27:17;4.75;;;2.65;;
21663;SDS011;10993;52.510;13.456;2023-06-10T11:32:18;4.68;;;2.90;;
21663;SDS011;10993;52.510;13.456;2023-06-10T11:37:19;5.05;;;3.00;;
21663;SDS011;10993;52.510;13.456;2023-06-10T11:42:22;3.75;;;2.47;;
21663;SDS011;10993;52.510;13.456;2023-06-10T11:47:22;4.45;;;2.90;;
21663;SDS011;10993;52.510;13.456;2023-06-10T11:52:25;3.97;;;2.67;;
21663;SDS011;10993;52.510;13.456;2023-06-10T11:57:27;4.22;;;3.10;;
21663;SDS011;10993;52.510;13.456;2023-06-10T12:02:28;5.22;;;3.17;;
21663;SDS011;10993;52.510;13.456;2023-06-10T12:07:28;8.40;;;3.28;;
21663;SDS011;10993;52.510;13.456;2023-06-10T12:12:30;7.03;;;3.10;;
21663;SDS011;10993;52.510;13.456;2023-06-10T12:17:37;7.75;;;3.50;;
21663;SDS011;10993;52.510;13.456;2023-06-10T12:22:38;5.50;;;3.83;;
21663;SDS011;10993;52.510;13.456;2023-06-10T12:27:49;6.43;;;4.30;;
21663;SDS011;10993;52.510;13.456;2023-06-10T12:32:50;5.97;;;3.85;;
21663;SDS011;10993;52.510;13.456;2023-06-10T12:37:55;6.68;;;4.07;;
21663;SDS011;10993;52.510;13.456;2023-06-10T12:42:58;7.07;;;4.68;;
21663;SDS011;10993;52.510;13.456;2023-06-10T12:48:05;7.15;;;4.45;;
21663;SDS011;10993;52.510;13.456;2023-06-10T12:53:10;8.98;;;4.90;;
21663;SDS011;10993;52.510;13.456;2023-06-10T12:58:12;5.22;;;4.25;;
21663;SDS011;10993;52.510;13.456;2023-06-10T13:03:13;10.63;;;4.55;;
21663;SDS011;10993;52.510;13.456;2023-06-10T13:08:13;5.70;;;4.27;;
21663;SDS011;10993;52.510;13.456;2023-06-10T13:13:15;6.80;;;5.13;;
21663;SDS011;10993;52.510;13.456;2023-06-10T13:18:17;10.43;;;4.80;;
21663;SDS011;10993;52.510;13.456;2023-06-10T13:23:18;6.38;;;4.45;;
21663;SDS011;10993;52.510;13.456;2023-06-10T13:28:20;6.27;;;4.67;;
21663;SDS011;10993;52.510;13.456;2023-06-10T13:33:20;9.73;;;4.68;;
21663;SDS011;10993;52.510;13.456;2023-06-10T13:38:21;6.35;;;4.57;;
21663;SDS011;10993;52.510;13.456;2023-06-10T13:43:23;7.35;;;4.10;;
21663;SDS011;10993;52.510;13.456;2023-06-10T13:48:23;7.93;;;4.78;;
21663;SDS011;10993;52.510;13.456;2023-06-10T13:53:24;5.70;;;3.80;;
21663;SDS011;10993;52.510;13.456;2023-06-10T13:58:25;6.23;;;4.57;;
21663;SDS011;10993;52.510;13.456;2023-06-10T14:03:26;6.88;;;4.32;;
21663;SDS011;10993;52.510;13.456;2023-06-10T14:08:26;6.40;;;4.50;;
21663;SDS011;10993;52.510;13.456;2023-06-10T14:13:28;8.17;;;4.30;;
21663;SDS011;10993;52.510;13.456;2023-06-10T14:18:29;8.02;;;4.07;;
21663;SDS011;10993;52.510;13.456;2023-06-10T14:23:29;5.20;;;3.72;;
21663;SDS011;10993;52.510;13.456;2023-06-10T14:28:31;9.93;;;4.10;;
21663;SDS011;10993;52.510;13.456;2023-06-10T14:33:31;5.70;;;4.00;;
21663;SDS011;10993;52.510;13.456;2023-06-10T14:38:32;7.45;;;3.80;;
21663;SDS011;10993;52.510;13.456;2023-06-10T14:43:33;7.15;;;4.10;;
21663;SDS011;10993;52.510;13.456;2023-06-10T14:48:34;5.72;;;3.85;;
21663;SDS011;10993;52.510;13.456;2023-06-10T14:53:34;5.88;;;3.83;;
21663;SDS011;10993;52.510;13.456;2023-06-10T14:58:36;7.93;;;4.10;;
21663;SDS011;10993;52.510;13.456;2023-06-10T15:03:36;8.07;;;3.90;;
21663;SDS011;10993;52.510;13.456;2023-06-10T15:08:37;7.67;;;3.40;;
21663;SDS011;10993;52.510;13.456;2023-06-10T15:13:38;4.70;;;3.63;;
21663;SDS011;10993;52.510;13.456;2023-06-10T15:18:39;6.50;;;3.35;;
21663;SDS011;10993;52.510;13.456;2023-06-10T15:23:39;6.78;;;3.33;;
21663;SDS011;10993;52.510;13.456;2023-06-10T15:28:41;4.72;;;3.15;;
21663;SDS011;10993;52.510;13.456;2023-06-10T15:33:41;7.63;;;3.30;;
21663;SDS011;10993;52.510;13.456;2023-06-10T15:38:41;8.30;;;3.73;;
21663;SDS011;10993;52.510;13.456;2023-06-10T15:43:43;5.33;;;3.10;;
21663;SDS011;10993;52.510;13.456;2023-06-10T15:48:43;8.35;;;3.40;;
21663;SDS011;10993;52.510;13.456;2023-06-10T15:53:44;5.93;;;3.13;;
21663;SDS011;10993;52.510;13.456;2023-06-10T15:58:47;5.50;;;3.65;;
21663;SDS011;10993;52.510;13.456;2023-06-10T16:03:47;7.38;;;3.75;;
21663;SDS011;10993;52.510;13.456;2023-06-10T16:08:48;9.00;;;3.70;;
21663;SDS011;10993;52.510;13.456;2023-06-10T16:13:49;5.78;;;3.63;;
21663;SDS011;10993;52.510;13.456;2023-06-10T16:18:50;4.82;;;3.10;;
21663;SDS011;10993;52.510;13.456;2023-06-10T16:23:50;4.90;;;2.63;;
21663;SDS011;10993;52.510;13.456;2023-06-10T16:28:52;5.78;;;3.10;;
21663;SDS011;10993;52.510;13.456;2023-06-10T16:33:52;4.72;;;3.00;;
21663;SDS011;10993;52.510;13.456;2023-06-10T16:38:53;7.63;;;3.10;;
21663;SDS011;10993;52.510;13.456;2023-06-10T16:43:58;5.63;;;3.30;;
21663;SDS011;10993;52.510;13.456;2023-06-10T16:48:58;7.03;;;3.00;;
21663;SDS011;10993;52.510;13.456;2023-06-10T16:53:59;6.32;;;3.17;;
21663;SDS011;10993;52.510;13.456;2023-06-10T16:59:01;5.70;;;3.13;;
21663;SDS011;10993;52.510;13.456;2023-06-10T17:04:01;4.90;;;2.90;;
21663;SDS011;10993;52.510;13.456;2023-06-10T17:09:02;6.40;;;3.28;;
21663;SDS011;10993;52.510;13.456;2023-06-10T17:14:04;6.90;;;3.17;;
21663;SDS011;10993;52.510;13.456;2023-06-10T17:19:05;5.28;;;2.80;;
21663;SDS011;10993;52.510;13.456;2023-06-10T17:24:06;9.60;;;3.10;;
21663;SDS011;10993;52.510;13.456;2023-06-10T17:29:07;5.07;;;2.75;;
21663;SDS011;10993;52.510;13.456;2023-06-10T17:34:08;4.97;;;2.90;;
21663;SDS011;10993;52.510;13.456;2023-06-10T17:39:09;5.63;;;2.95;;
21663;SDS011;10993;52.510;13.456;2023-06-10T17:44:12;5.18;;;3.10;;
21663;SDS011;10993;52.510;13.456;2023-06-10T17:49:15;4.95;;;3.08;;
21663;SDS011;10993;52.510;13.456;2023-06-10T17:54:16;4.70;;;2.78;;
21663;SDS011;10993;52.510;13.456;2023-06-10T17:59:17;5.13;;;3.17;;
21663;SDS011;10993;52.510;13.456;2023-06-10T18:04:18;6.05;;;3.47;;
21663;SDS011;10993;52.510;13.456;2023-06-10T18:09:18;9.37;;;3.70;;
21663;SDS011;10993;52.510;13.456;2023-06-10T18:14:20;5.07;;;3.33;;
21663;SDS011;10993;52.510;13.456;2023-06-10T18:19:20;5.28;;;3.65;;
21663;SDS011;10993;52.510;13.456;2023-06-10T18:24:21;8.70;;;4.00;;
21663;SDS011;10993;52.510;13.456;2023-06-10T18:29:23;6.78;;;4.32;;
21663;SDS011;10993;52.510;13.456;2023-06-10T18:34:24;8.23;;;4.97;;
21663;SDS011;10993;52.510;13.456;2023-06-10T18:39:24;10.37;;;4.10;;
21663;SDS011;10993;52.510;13.456;2023-06-10T18:44:26;4.77;;;3.33;;
21663;SDS011;10993;52.510;13.456;2023-06-10T18:49:26;6.38;;;3.70;;
21663;SDS011;10993;52.510;13.456;2023-06-10T18:54:26;7.47;;;4.00;;
21663;SDS011;10993;52.510;13.456;2023-06-10T18:59:28;9.73;;;4.20;;
21663;SDS011;10993;52.510;13.456;2023-06-10T19:04:28;8.85;;;4.18;;
21663;SDS011;10993;52.510;13.456;2023-06-10T19:09:29;9.20;;;3.72;;
21663;SDS011;10993;52.510;13.456;2023-06-10T19:14:31;8.13;;;4.40;;
21663;SDS011;10993;52.510;13.456;2023-06-10T19:19:31;6.00;;;3.92;;
21663;SDS011;10993;52.510;13.456;2023-06-10T19:24:31;8.53;;;4.63;;
21663;SDS011;10993;52.510;13.456;2023-06-10T19:29:33;5.57;;;4.00;;
21663;SDS011;10993;52.510;13.456;2023-06-10T19:34:33;8.60;;;4.18;;
21663;SDS011;10993;52.510;13.456;2023-06-10T19:39:34;7.07;;;4.57;;
21663;SDS011;10993;52.510;13.456;2023-06-10T19:44:35;6.30;;;4.05;;
21663;SDS011;10993;52.510;13.456;2023-06-10T19:49:36;7.28;;;3.92;;
21663;SDS011;10993;52.510;13.456;2023-06-10T19:54:36;6.33;;;3.63;;
21663;SDS011;10993;52.510;13.456;2023-06-10T19:59:38;7.47;;;4.22;;
21663;SDS011;10993;52.510;13.456;2023-06-10T20:04:41;7.50;;;3.90;;
21663;SDS011;10993;52.510;13.456;2023-06-10T20:09:41;7.93;;;3.72;;
21663;SDS011;10993;52.510;13.456;2023-06-10T20:14:43;7.00;;;4.37;;
21663;SDS011;10993;52.510;13.456;2023-06-10T20:19:45;10.15;;;4.47;;
21663;SDS011;10993;52.510;13.456;2023-06-10T20:24:50;6.97;;;4.00;;
21663;SDS011;10993;52.510;13.456;2023-06-10T20:29:53;11.02;;;5.00;;
21663;SDS011;10993;52.510;13.456;2023-06-10T20:34:53;6.03;;;3.15;;
21663;SDS011;10993;52.510;13.456;2023-06-10T20:39:53;7.03;;;3.80;;
21663;SDS011;10993;52.510;13.456;2023-06-10T20:44:55;6.47;;;4.07;;
21663;SDS011;10993;52.510;13.456;2023-06-10T20:49:55;7.43;;;4.28;;
21663;SDS011;10993;52.510;13.456;2023-06-10T20:54:56;6.90;;;4.50;;
21663;SDS011;10993;52.510;13.456;2023-06-10T20:59:59;7.77;;;4.13;;
21663;SDS011;10993;52.510;13.456;2023-06-10T21:04:59;5.95;;;3.67;;
21663;SDS011;10993;52.510;13.456;2023-06-10T21:10:00;5.97;;;3.50;;
21663;SDS011;10993;52.510;13.456;2023-06-10T21:15:02;7.28;;;3.90;;
21663;SDS011;10993;52.510;13.456;2023-06-10T21:20:03;8.15;;;3.50;;
21663;SDS011;10993;52.510;13.456;2023-06-10T21:25:04;6.85;;;3.33;;
21663;SDS011;10993;52.510;13.456;2023-06-10T21:30:07;6.75;;;3.58;;
21663;SDS011;10993;52.510;13.456;2023-06-10T21:35:08;7.15;;;4.00;;
21663;SDS011;10993;52.510;13.456;2023-06-10T21:40:08;5.67;;;3.30;;
21663;SDS011;10993;52.510;13.456;2023-06-10T21:45:11;5.32;;;3.22;;
21663;SDS011;10993;52.510;13.456;2023-06-10T21:50:11;8.70;;;3.53;;
21663;SDS011;10993;52.510;13.456;2023-06-10T21:55:12;7.95;;;3.90;;
21663;SDS011;10993;52.510;13.456;2023-06-10T22:00:14;7.30;;;3.40;;
21663;SDS011;10993;52.510;13.456;2023-06-10T22:05:15;7.72;;;3.20;;
21663;SDS011;10993;52.510;13.456;2023-06-10T22:10:15;5.70;;;3.15;;
21663;SDS011;10993;52.510;13.456;2023-06-10T22:15:17;6.80;;;3.20;;
21663;SDS011;10993;52.510;13.456;2023-06-10T22:20:17;4.82;;;2.95;;
21663;SDS011;10993;52.510;13.456;2023-06-10T22:25:18;7.95;;;3.00;;
21663;SDS011;10993;52.510;13.456;2023-06-10T22:30:19;5.95;;;2.90;;
21663;SDS011;10993;52.510;13.456;2023-06-10T22:35:20;7.13;;;3.05;;
21663;SDS011;10993;52.510;13.456;2023-06-10T22:40:20;5.15;;;2.58;;
21663;SDS011;10993;52.510;13.456;2023-06-10T22:45:22;3.83;;;2.40;;
21663;SDS011;10993;52.510;13.456;2023-06-10T22:50:23;3.53;;;2.10;;
21663;SDS011;10993;52.510;13.456;2023-06-10T22:55:24;5.25;;;2.83;;
21663;SDS011;10993;52.510;13.456;2023-06-10T23:00:25;4.23;;;2.30;;
21663;SDS011;10993;52.510;13.456;2023-06-10T23:05:26;5.85;;;3.20;;
21663;SDS011;10993;52.510;13.456;2023-06-10T23:10:26;5.22;;;2.50;;
21663;SDS011;10993;52.510;13.456;2023-06-10T23:15:28;4.47;;;2.43;;
21663;SDS011;10993;52.510;13.456;2023-06-10T23:20:28;5.20;;;2.20;;
21663;SDS011;10993;52.510;13.456;2023-06-10T23:25:31;6.03;;;2.60;;
21663;SDS011;10993;52.510;13.456;2023-06-10T23:30:33;4.65;;;2.50;;
21663;SDS011;10993;52.510;13.456;2023-06-10T23:35:34;5.00;;;2.53;;
21663;SDS011;10993;52.510;13.456;2023-06-10T23:40:34;4.07;;;2.17;;
21663;SDS011;10993;52.510;13.456;2023-06-10T23:45:36;4.30;;;2.07;;
21663;SDS011;10993;52.510;13.456;2023-06-10T23:50:36;4.45;;;2.10;;
21663;SDS011;10993;52.510;13.456;2023-06-10T23:55:38;6.20;;;2.15;;
